Time;durP1;ratioP1;P1;durP2;ratioP2;P2;SDS_P1;SDS_P2;PMS_P1;PMS_P2;Temp;Humidity;BMP_temperature;BMP_pressure;BME280_temperature;BME280_humidity;BME280_pressure;Samples;Min_cycle;Max_cycle;Signal;HPM_P1;HPM_P2
2022/08/16 00:02:12;;;;;;;12.85;11.02;;;21.30;99.90;;;;;;6176421;22;20031;-86
2022/08/16 00:04:37;;;;;;;12.63;11.27;;;21.30;99.90;;;;;;6149167;22;20021;-85
2022/08/16 00:07:03;;;;;;;12.18;10.70;;;21.20;99.90;;;;;;6174512;22;20445;-85
2022/08/16 00:09:29;;;;;;;13.68;11.50;;;21.30;99.90;;;;;;6149490;23;20025;-86
2022/08/16 00:11:55;;;;;;;15.23;12.20;;;21.20;99.90;;;;;;6174401;23;20333;-85
2022/08/16 00:14:26;;;;;;;15.25;13.45;;;21.20;99.90;;;;;;6174430;22;20109;-85
2022/08/16 00:16:52;;;;;;;14.68;12.95;;;21.20;99.90;;;;;;6176206;23;20016;-85
2022/08/16 00:19:25;;;;;;;15.65;13.38;;;21.20;99.90;;;;;;6174604;22;20314;-85
2022/08/16 00:21:52;;;;;;;14.73;13.13;;;21.20;99.90;;;;;;6175730;23;20009;-86
2022/08/16 00:24:18;;;;;;;16.60;14.30;;;21.10;99.90;;;;;;6174173;23;20025;-85
2022/08/16 00:26:44;;;;;;;16.17;14.48;;;21.10;99.90;;;;;;6175955;23;20013;-85
2022/08/16 00:29:12;;;;;;;16.45;13.88;;;21.20;99.90;;;;;;6148988;23;20104;-86
2022/08/16 00:31:38;;;;;;;17.65;14.30;;;21.10;99.90;;;;;;6174114;23;20021;-85
2022/08/16 00:34:03;;;;;;;15.20;13.57;;;21.10;99.90;;;;;;6176101;23;20043;-85
2022/08/16 00:36:29;;;;;;;16.40;13.88;;;21.10;99.90;;;;;;6174186;22;20021;-85
2022/08/16 00:38:54;;;;;;;16.02;13.65;;;21.00;99.90;;;;;;6173739;22;20338;-85
2022/08/16 00:41:21;;;;;;;15.02;13.43;;;21.00;99.90;;;;;;6174820;22;20024;-85
2022/08/16 00:43:47;;;;;;;16.13;12.55;;;20.90;99.90;;;;;;6173351;23;20500;-86
2022/08/16 00:46:28;;;;;;;17.17;13.98;;;21.00;99.90;;;;;;6174225;23;20043;-85
2022/08/16 00:48:54;;;;;;;13.93;12.50;;;21.00;99.90;;;;;;6173479;23;20025;-85
2022/08/16 00:51:22;;;;;;;13.48;12.07;;;21.00;99.90;;;;;;6149826;23;20014;-85
2022/08/16 00:53:49;;;;;;;17.23;12.85;;;20.90;99.90;;;;;;6124792;23;20100;-85
2022/08/16 00:56:20;;;;;;;14.48;12.93;;;20.90;99.90;;;;;;6176213;23;20009;-86
2022/08/16 00:58:47;;;;;;;15.50;13.30;;;20.90;99.90;;;;;;6124488;23;20472;-85
2022/08/16 01:01:16;;;;;;;14.95;13.35;;;20.90;99.90;;;;;;6149269;23;20020;-85
2022/08/16 01:03:45;;;;;;;15.15;13.65;;;20.80;99.90;;;;;;6175870;23;20019;-85
2022/08/16 01:06:12;;;;;;;16.20;14.55;;;21.10;99.90;;;;;;6124598;23;20017;-85
2022/08/16 01:08:41;;;;;;;18.25;13.90;;;20.90;99.90;;;;;;6148865;23;20460;-85
2022/08/16 01:11:07;;;;;;;15.57;13.90;;;20.80;99.90;;;;;;6175856;22;20345;-86
2022/08/16 01:13:35;;;;;;;15.65;14.05;;;20.80;99.90;;;;;;6175211;22;20021;-85
2022/08/16 01:16:14;;;;;;;16.40;13.48;;;20.80;99.90;;;;;;6149354;23;20017;-85
2022/08/16 01:19:09;;;;;;;17.50;14.55;;;20.80;99.90;;;;;;6149223;22;20013;-85
2022/08/16 01:21:46;;;;;;;16.05;13.77;;;20.80;99.90;;;;;;6148833;23;20021;-85
2022/08/16 01:24:27;;;;;;;17.73;15.23;;;20.70;99.90;;;;;;6148939;23;20039;-85
2022/08/16 01:27:01;;;;;;;15.32;13.73;;;20.70;99.90;;;;;;6148375;23;20021;-85
2022/08/16 01:29:35;;;;;;;15.57;13.97;;;20.60;99.90;;;;;;6149840;23;20438;-85
2022/08/16 01:32:00;;;;;;;17.73;14.43;;;20.60;99.90;;;;;;6124868;23;20088;-85
2022/08/16 01:34:26;;;;;;;17.52;15.23;;;20.60;99.90;;;;;;6124761;23;20109;-85
2022/08/16 01:37:05;;;;;;;15.90;14.20;;;20.60;99.90;;;;;;6124520;23;20445;-85
2022/08/16 01:39:32;;;;;;;18.60;13.38;;;20.50;99.90;;;;;;6124816;23;20406;-86
2022/08/16 01:41:59;;;;;;;19.08;14.52;;;20.50;99.90;;;;;;6148877;23;20097;-85
2022/08/16 01:44:25;;;;;;;16.70;14.93;;;20.60;99.90;;;;;;6149263;23;20469;-85
2022/08/16 01:46:52;;;;;;;15.25;13.65;;;20.60;99.90;;;;;;6148809;23;20052;-85
2022/08/16 01:49:22;;;;;;;16.10;13.63;;;20.50;99.90;;;;;;6175427;23;20111;-85
2022/08/16 01:52:09;;;;;;;15.52;12.57;;;20.60;99.90;;;;;;6124105;23;20057;-85
2022/08/16 01:54:35;;;;;;;18.35;14.50;;;20.60;99.90;;;;;;6175281;23;20096;-85
2022/08/16 01:57:01;;;;;;;20.60;15.25;;;20.60;99.90;;;;;;6124326;23;20055;-85
2022/08/16 01:59:28;;;;;;;17.77;15.40;;;20.50;99.90;;;;;;6149160;22;20457;-85
2022/08/16 02:01:54;;;;;;;16.70;14.55;;;20.50;99.90;;;;;;6174658;22;20449;-85
2022/08/16 02:04:22;;;;;;;15.95;14.13;;;20.50;99.90;;;;;;6175300;23;20024;-85
2022/08/16 02:06:48;;;;;;;17.38;14.02;;;20.40;99.90;;;;;;6175202;23;20025;-85
2022/08/16 02:09:15;;;;;;;17.20;15.30;;;20.40;99.90;;;;;;6124179;23;20018;-86
2022/08/16 02:11:44;;;;;;;17.13;14.80;;;20.40;99.90;;;;;;6123472;23;20017;-85
2022/08/16 02:14:10;;;;;;;20.20;15.18;;;20.30;99.90;;;;;;6149137;22;20024;-85
2022/08/16 02:16:36;;;;;;;16.92;15.07;;;20.40;99.90;;;;;;6148592;23;20017;-85
2022/08/16 02:19:02;;;;;;;17.65;15.68;;;20.20;99.90;;;;;;6149398;23;20460;-85
2022/08/16 02:21:29;;;;;;;16.63;14.93;;;20.20;99.90;;;;;;6148797;23;20025;-85
2022/08/16 02:23:55;;;;;;;16.95;15.15;;;20.10;99.90;;;;;;6150047;23;20039;-85
2022/08/16 02:26:21;;;;;;;18.73;15.82;;;20.10;99.90;;;;;;6149953;23;20017;-85
2022/08/16 02:28:47;;;;;;;16.75;14.90;;;20.00;99.90;;;;;;6176512;23;20021;-85
2022/08/16 02:31:14;;;;;;;17.85;14.65;;;20.00;99.90;;;;;;6176691;23;20017;-85
2022/08/16 02:33:41;;;;;;;17.27;15.48;;;20.00;99.90;;;;;;6149638;22;20017;-85
2022/08/16 02:36:07;;;;;;;17.55;15.75;;;19.90;99.90;;;;;;6150142;22;20019;-85
2022/08/16 02:38:33;;;;;;;15.40;13.90;;;19.90;99.90;;;;;;6149531;23;20383;-85
2022/08/16 02:41:03;;;;;;;15.73;14.13;;;19.90;99.90;;;;;;6125556;23;20134;-85
2022/08/16 02:43:30;;;;;;;17.23;15.30;;;19.90;99.90;;;;;;6125426;23;20361;-85
2022/08/16 02:45:57;;;;;;;17.38;14.43;;;19.90;99.90;;;;;;6176414;23;20023;-85
2022/08/16 02:48:23;;;;;;;17.75;14.57;;;19.90;99.90;;;;;;6150613;22;20522;-85
2022/08/16 02:50:49;;;;;;;18.88;15.88;;;19.90;99.90;;;;;;6172628;22;20433;-85
2022/08/16 02:53:14;;;;;;;17.88;14.90;;;19.90;99.90;;;;;;6175999;22;20063;-85
2022/08/16 02:55:40;;;;;;;20.63;15.23;;;19.90;99.90;;;;;;6174643;22;20017;-85
2022/08/16 02:58:06;;;;;;;16.45;14.70;;;19.90;99.90;;;;;;6176537;22;20028;-85
2022/08/16 03:00:31;;;;;;;17.23;15.43;;;19.90;99.90;;;;;;6176374;23;20023;-85
2022/08/16 03:02:57;;;;;;;16.13;14.25;;;19.90;99.90;;;;;;6174344;22;20943;-85
2022/08/16 03:05:23;;;;;;;16.75;14.65;;;19.80;99.90;;;;;;6175220;22;20100;-85
2022/08/16 03:07:49;;;;;;;16.67;15.00;;;19.90;99.90;;;;;;6149173;23;20071;-86
2022/08/16 03:10:16;;;;;;;17.00;15.18;;;19.80;99.90;;;;;;6150016;23;20017;-85
2022/08/16 03:12:44;;;;;;;20.35;16.67;;;19.70;99.90;;;;;;6149508;23;20064;-85
2022/08/16 03:15:13;;;;;;;19.67;16.30;;;19.60;99.90;;;;;;6174326;23;20010;-85
2022/08/16 03:17:40;;;;;;;20.13;17.92;;;19.70;99.90;;;;;;6174516;23;20021;-85
2022/08/16 03:20:08;;;;;;;18.23;16.35;;;19.60;99.90;;;;;;6174803;23;20494;-85
2022/08/16 03:22:34;;;;;;;18.10;16.15;;;19.60;99.90;;;;;;6148975;23;20457;-85
2022/08/16 03:25:04;;;;;;;17.30;15.57;;;19.60;99.90;;;;;;6176630;22;20078;-85
2022/08/16 03:27:31;;;;;;;17.65;15.55;;;19.50;99.90;;;;;;6174805;23;20329;-85
2022/08/16 03:29:59;;;;;;;17.85;16.00;;;19.50;99.90;;;;;;6174838;23;20013;-85
2022/08/16 03:32:25;;;;;;;22.42;16.50;;;19.50;99.90;;;;;;6149534;23;20062;-86
2022/08/16 03:34:51;;;;;;;18.17;16.23;;;19.30;99.90;;;;;;6176162;23;20013;-85
2022/08/16 03:37:16;;;;;;;20.73;18.40;;;19.40;99.90;;;;;;6174054;22;20025;-85
2022/08/16 03:39:42;;;;;;;19.55;16.60;;;19.40;99.90;;;;;;6174386;22;20040;-85
2022/08/16 03:42:07;;;;;;;18.35;16.40;;;19.30;99.90;;;;;;6174335;22;20405;-85
2022/08/16 03:44:33;;;;;;;18.67;16.67;;;19.30;99.90;;;;;;6176348;22;20092;-85
2022/08/16 03:46:59;;;;;;;18.77;16.65;;;19.20;99.90;;;;;;6174675;22;20019;-85
2022/08/16 03:49:26;;;;;;;17.55;15.73;;;19.30;99.90;;;;;;6176299;22;20075;-85
2022/08/16 03:51:51;;;;;;;18.20;16.15;;;19.20;99.90;;;;;;6148968;23;20425;-85
2022/08/16 03:54:17;;;;;;;17.52;15.73;;;19.20;99.90;;;;;;6150159;23;20453;-84
2022/08/16 03:56:42;;;;;;;19.50;16.95;;;19.10;99.90;;;;;;6124809;23;20345;-85
2022/08/16 03:59:08;;;;;;;20.75;16.65;;;19.00;99.90;;;;;;6149918;23;20013;-85
2022/08/16 04:01:34;;;;;;;18.90;16.92;;;19.10;99.90;;;;;;6149687;23;20445;-85
2022/08/16 04:04:00;;;;;;;19.02;17.02;;;19.00;99.90;;;;;;6150085;23;20089;-85
2022/08/16 04:06:25;;;;;;;19.85;17.35;;;19.00;99.90;;;;;;6124762;23;20088;-85
2022/08/16 04:08:51;;;;;;;21.63;18.42;;;18.90;99.90;;;;;;6149713;22;20484;-85
2022/08/16 04:11:17;;;;;;;20.95;18.15;;;18.90;99.90;;;;;;6149843;23;20099;-86
2022/08/16 04:13:43;;;;;;;22.48;19.20;;;18.90;99.90;;;;;;6124566;23;20330;-85
2022/08/16 04:16:10;;;;;;;20.75;18.27;;;18.90;99.90;;;;;;6150143;22;20549;-85
2022/08/16 04:18:37;;;;;;;20.95;18.67;;;18.90;99.90;;;;;;6175831;23;20021;-85
2022/08/16 04:21:03;;;;;;;23.52;18.70;;;18.90;99.90;;;;;;6124704;23;20074;-85
2022/08/16 04:23:29;;;;;;;21.05;17.42;;;18.80;99.90;;;;;;6175914;22;20099;-85
2022/08/16 04:25:54;;;;;;;21.98;18.58;;;18.80;99.90;;;;;;6149385;23;20044;-85
2022/08/16 04:28:20;;;;;;;22.88;17.50;;;18.80;99.90;;;;;;6176379;23;20025;-85
2022/08/16 04:30:46;;;;;;;21.10;17.92;;;18.80;99.90;;;;;;6175631;23;20013;-85
2022/08/16 04:33:11;;;;;;;20.60;17.58;;;18.80;99.90;;;;;;6176186;23;20018;-85
2022/08/16 04:35:37;;;;;;;20.27;17.40;;;18.60;99.90;;;;;;6175535;23;20013;-85
2022/08/16 04:38:04;;;;;;;19.40;17.38;;;18.70;99.90;;;;;;6175608;23;20082;-85
2022/08/16 04:40:29;;;;;;;18.98;17.00;;;18.70;99.90;;;;;;6149777;23;20024;-85
2022/08/16 04:42:56;;;;;;;19.15;16.55;;;18.70;99.90;;;;;;6175972;23;20017;-85
2022/08/16 04:45:23;;;;;;;21.08;17.02;;;18.60;99.90;;;;;;6148959;23;20017;-85
2022/08/16 04:47:48;;;;;;;18.05;16.10;;;18.60;99.90;;;;;;6149232;23;20028;-85
2022/08/16 04:50:17;;;;;;;19.33;16.55;;;18.60;99.90;;;;;;6175172;23;20017;-85
2022/08/16 04:52:47;;;;;;;19.33;17.08;;;18.60;99.90;;;;;;6175495;22;20021;-85
2022/08/16 04:55:17;;;;;;;21.08;17.00;;;18.60;99.90;;;;;;6149609;22;20094;-85
2022/08/16 04:57:43;;;;;;;20.63;18.48;;;18.60;99.90;;;;;;6149411;22;20217;-85
2022/08/16 05:00:12;;;;;;;19.02;16.65;;;18.70;99.90;;;;;;6149535;22;20021;-85
2022/08/16 05:02:39;;;;;;;20.08;17.13;;;18.60;99.90;;;;;;6149156;23;20029;-85
2022/08/16 05:05:05;;;;;;;20.52;18.35;;;18.60;99.90;;;;;;6175592;22;20085;-85
2022/08/16 05:07:31;;;;;;;20.83;18.60;;;18.60;99.90;;;;;;6175797;23;20564;-85
2022/08/16 05:09:56;;;;;;;19.25;16.05;;;18.60;99.90;;;;;;6149059;23;20094;-85
2022/08/16 05:12:22;;;;;;;22.23;18.83;;;18.60;99.90;;;;;;6149555;23;20025;-85
2022/08/16 05:14:48;;;;;;;19.42;17.05;;;18.60;99.90;;;;;;6124162;23;20032;-85
2022/08/16 05:17:13;;;;;;;20.25;17.80;;;18.60;99.90;;;;;;6176048;23;20021;-85
2022/08/16 05:19:39;;;;;;;22.95;18.30;;;18.60;99.90;;;;;;6174832;23;20453;-85
2022/08/16 05:22:04;;;;;;;23.70;18.98;;;18.70;99.90;;;;;;6149322;23;20021;-85
2022/08/16 05:24:30;;;;;;;20.00;17.05;;;18.60;99.90;;;;;;6175451;23;20072;-85
2022/08/16 05:26:56;;;;;;;25.20;19.70;;;18.60;99.90;;;;;;6149064;23;20013;-85
2022/08/16 05:29:21;;;;;;;24.77;20.27;;;18.70;99.90;;;;;;6149327;23;20452;-85
2022/08/16 05:31:47;;;;;;;24.67;19.50;;;18.70;99.90;;;;;;6149101;23;20019;-85
2022/08/16 05:34:12;;;;;;;22.27;19.33;;;18.80;99.90;;;;;;6148319;23;20048;-85
2022/08/16 05:36:38;;;;;;;24.20;20.23;;;18.70;99.90;;;;;;6148861;23;20021;-85
2022/08/16 05:39:08;;;;;;;23.15;18.90;;;18.70;99.90;;;;;;6149697;23;20013;-85
2022/08/16 05:41:34;;;;;;;22.10;19.50;;;18.90;99.90;;;;;;6148859;23;20021;-85
2022/08/16 05:44:00;;;;;;;24.95;19.83;;;18.80;99.90;;;;;;6149185;23;20017;-85
2022/08/16 05:46:25;;;;;;;20.05;17.45;;;18.80;99.90;;;;;;6175653;23;20061;-85
2022/08/16 05:48:51;;;;;;;26.33;20.58;;;18.90;99.90;;;;;;6147992;23;20476;-85
2022/08/16 05:51:18;;;;;;;23.80;19.05;;;19.00;99.90;;;;;;6149197;23;20114;-85
2022/08/16 05:53:44;;;;;;;29.42;20.75;;;18.90;99.90;;;;;;6148471;23;20027;-85
2022/08/16 05:56:10;;;;;;;21.27;19.02;;;19.00;99.90;;;;;;6124681;23;20013;-85
2022/08/16 05:58:35;;;;;;;23.90;20.05;;;19.00;99.90;;;;;;6149948;22;20388;-85
2022/08/16 06:01:01;;;;;;;23.05;19.52;;;19.00;99.90;;;;;;6176682;23;20009;-85
2022/08/16 06:03:26;;;;;;;22.20;19.75;;;19.10;99.90;;;;;;6176051;23;20123;-85
2022/08/16 06:05:52;;;;;;;24.30;19.50;;;19.10;99.90;;;;;;6149960;23;20017;-85
2022/08/16 06:08:18;;;;;;;23.25;19.30;;;19.20;99.90;;;;;;6176412;23;20522;-85
2022/08/16 06:10:43;;;;;;;24.77;19.55;;;19.20;99.90;;;;;;6149890;23;20015;-85
2022/08/16 06:13:09;;;;;;;21.10;18.80;;;19.10;99.90;;;;;;6150475;23;20021;-85
2022/08/16 06:15:34;;;;;;;23.65;19.90;;;19.20;99.90;;;;;;6149499;23;20317;-85
2022/08/16 06:18:00;;;;;;;22.20;19.63;;;19.30;99.90;;;;;;6176237;23;20062;-85
2022/08/16 06:20:27;;;;;;;23.98;19.67;;;19.30;99.90;;;;;;6150343;23;20449;-85
2022/08/16 06:22:55;;;;;;;24.63;19.73;;;19.40;99.90;;;;;;6149969;22;20028;-85
2022/08/16 06:25:21;;;;;;;23.27;18.42;;;19.60;99.90;;;;;;6150182;22;20013;-85
2022/08/16 06:27:48;;;;;;;24.10;17.60;;;19.70;99.90;;;;;;6125526;23;20024;-85
2022/08/16 06:30:13;;;;;;;18.60;15.88;;;20.00;99.90;;;;;;6177463;22;20017;-85
2022/08/16 06:32:40;;;;;;;22.40;17.95;;;20.00;99.90;;;;;;6149588;23;20070;-85
2022/08/16 06:35:06;;;;;;;18.55;16.55;;;20.20;99.90;;;;;;6125565;23;20009;-85
2022/08/16 06:37:32;;;;;;;20.55;16.10;;;20.30;99.90;;;;;;6149774;22;20060;-85
2022/08/16 06:39:58;;;;;;;21.50;17.98;;;20.40;99.90;;;;;;6150350;23;20428;-85
2022/08/16 06:42:23;;;;;;;20.35;16.45;;;20.50;99.90;;;;;;6150195;23;20017;-85
2022/08/16 06:44:49;;;;;;;22.90;17.63;;;20.50;99.90;;;;;;6149200;23;20080;-85
2022/08/16 06:47:15;;;;;;;21.10;16.83;;;20.50;99.90;;;;;;6124907;23;20013;-85
2022/08/16 06:49:41;;;;;;;24.40;18.05;;;20.50;99.90;;;;;;6158706;23;20506;-85
2022/08/16 06:52:07;;;;;;;20.25;16.45;;;20.50;99.90;;;;;;6175379;23;20024;-85
2022/08/16 06:54:34;;;;;;;21.52;16.98;;;20.50;99.90;;;;;;6149810;23;20025;-85
2022/08/16 06:57:00;;;;;;;25.85;17.88;;;20.50;99.90;;;;;;6174870;23;20449;-85
2022/08/16 06:59:25;;;;;;;22.73;16.98;;;20.60;99.90;;;;;;6176543;22;20047;-85
2022/08/16 07:01:51;;;;;;;19.65;17.13;;;20.50;99.90;;;;;;6173612;23;20021;-85
2022/08/16 07:04:17;;;;;;;23.33;17.67;;;20.50;99.90;;;;;;6175283;23;20345;-85
2022/08/16 07:06:43;;;;;;;23.90;18.80;;;20.50;99.90;;;;;;6174853;22;20013;-85
2022/08/16 07:09:11;;;;;;;20.35;17.90;;;20.60;99.90;;;;;;6174339;22;20525;-85
2022/08/16 07:11:36;;;;;;;22.73;18.15;;;20.50;99.90;;;;;;6174682;23;20457;-85
2022/08/16 07:14:02;;;;;;;20.98;17.15;;;20.60;99.90;;;;;;6176604;23;20021;-85
2022/08/16 07:16:28;;;;;;;24.15;17.80;;;20.60;99.90;;;;;;6174475;22;20053;-85
2022/08/16 07:18:54;;;;;;;25.98;18.25;;;20.70;99.90;;;;;;6174465;22;20048;-85
2022/08/16 07:21:21;;;;;;;22.35;17.73;;;20.70;99.90;;;;;;6176594;22;20058;-85
2022/08/16 07:23:46;;;;;;;20.15;17.27;;;20.80;99.90;;;;;;6174301;23;20025;-85
2022/08/16 07:26:18;;;;;;;19.38;16.95;;;20.80;99.90;;;;;;6176471;22;20322;-85
2022/08/16 07:28:44;;;;;;;17.63;15.35;;;20.80;99.90;;;;;;6173893;23;20061;-85
2022/08/16 07:31:10;;;;;;;21.63;14.73;;;20.80;99.90;;;;;;6175334;23;20049;-85
2022/08/16 07:33:36;;;;;;;16.63;14.23;;;21.00;99.90;;;;;;6149469;22;20071;-85
2022/08/16 07:36:04;;;;;;;18.00;13.85;;;21.10;99.90;;;;;;6176076;23;20036;-85
2022/08/16 07:38:30;;;;;;;13.88;12.38;;;21.20;99.90;;;;;;6149637;23;20021;-85
2022/08/16 07:40:56;;;;;;;16.15;13.27;;;21.30;99.90;;;;;;6149398;22;20023;-85
2022/08/16 07:43:22;;;;;;;15.45;13.65;;;21.40;99.90;;;;;;6174079;23;20017;-85
2022/08/16 07:45:48;;;;;;;20.63;14.57;;;21.50;99.90;;;;;;6175665;23;20018;-85
2022/08/16 07:48:14;;;;;;;17.73;15.38;;;21.60;99.90;;;;;;6176426;23;20081;-85
2022/08/16 07:50:41;;;;;;;17.48;13.82;;;21.60;99.90;;;;;;6149736;22;20024;-85
2022/08/16 07:53:07;;;;;;;15.90;13.48;;;21.80;99.90;;;;;;6176642;23;20032;-85
2022/08/16 07:55:33;;;;;;;14.00;11.82;;;21.90;99.90;;;;;;6174252;23;20029;-85
2022/08/16 07:57:58;;;;;;;14.65;11.77;;;22.00;99.90;;;;;;6176001;22;20078;-85
2022/08/16 08:00:24;;;;;;;17.63;12.35;;;22.00;99.90;;;;;;6176204;22;20078;-85
2022/08/16 08:02:50;;;;;;;16.50;14.18;;;22.10;99.90;;;;;;6149691;22;20017;-85
2022/08/16 08:05:16;;;;;;;15.32;12.02;;;22.20;99.90;;;;;;6174636;22;20315;-85
2022/08/16 08:07:41;;;;;;;14.35;12.30;;;22.30;99.90;;;;;;6175356;23;20472;-85
2022/08/16 08:10:08;;;;;;;15.38;12.00;;;22.50;99.90;;;;;;6174626;23;20013;-85
2022/08/16 08:12:34;;;;;;;15.57;12.82;;;22.60;99.90;;;;;;6148417;23;20028;-85
2022/08/16 08:15:00;;;;;;;16.98;12.65;;;22.90;99.90;;;;;;6176406;23;20017;-85
2022/08/16 08:17:28;;;;;;;18.02;12.60;;;22.90;99.90;;;;;;6176321;22;20381;-85
2022/08/16 08:19:54;;;;;;;16.73;11.95;;;23.10;99.90;;;;;;6175640;23;20023;-85
2022/08/16 08:22:21;;;;;;;13.35;11.73;;;23.10;99.90;;;;;;6174728;22;20087;-85
2022/08/16 08:24:47;;;;;;;12.50;10.65;;;23.30;99.90;;;;;;6174117;23;20062;-85
2022/08/16 08:27:13;;;;;;;14.43;11.18;;;23.40;99.90;;;;;;6174924;23;20020;-85
2022/08/16 08:29:39;;;;;;;14.85;12.20;;;23.60;99.90;;;;;;6149246;23;20444;-85
2022/08/16 08:32:07;;;;;;;13.02;11.52;;;23.80;99.90;;;;;;6149931;23;20009;-85
2022/08/16 08:34:32;;;;;;;15.30;11.60;;;23.90;99.90;;;;;;6176275;23;20021;-85
2022/08/16 08:36:58;;;;;;;13.68;12.00;;;23.90;99.90;;;;;;6173927;22;20035;-85
2022/08/16 08:39:24;;;;;;;15.32;12.52;;;24.10;99.90;;;;;;6175235;22;20013;-85
2022/08/16 08:41:51;;;;;;;19.13;12.05;;;24.20;99.90;;;;;;6174990;22;20013;-85
2022/08/16 08:44:17;;;;;;;14.75;12.20;;;24.30;99.90;;;;;;6149829;23;20024;-85
2022/08/16 08:46:43;;;;;;;13.07;10.15;;;24.40;99.90;;;;;;6173951;23;20509;-85
2022/08/16 08:49:08;;;;;;;14.95;11.55;;;24.40;99.90;;;;;;6174323;23;20135;-85
2022/08/16 08:51:37;;;;;;;15.27;10.73;;;24.60;99.90;;;;;;6149132;23;20029;-85
2022/08/16 08:54:04;;;;;;;10.32;9.32;;;24.70;99.90;;;;;;6176202;23;20017;-85
2022/08/16 08:56:30;;;;;;;11.80;9.57;;;24.80;99.90;;;;;;6173941;23;20374;-85
2022/08/16 08:58:56;;;;;;;14.68;10.77;;;24.90;99.90;;;;;;6175477;23;20028;-85
2022/08/16 09:01:27;;;;;;;13.05;10.23;;;25.00;99.90;;;;;;6174814;22;20021;-85
2022/08/16 09:03:53;;;;;;;11.05;9.85;;;25.10;99.90;;;;;;6149100;23;20025;-85
2022/08/16 09:06:19;;;;;;;10.38;8.75;;;25.20;99.90;;;;;;6174366;22;20017;-85
2022/08/16 09:08:45;;;;;;;10.45;7.75;;;25.20;99.90;;;;;;6173986;22;20028;-86
2022/08/16 09:11:10;;;;;;;11.52;7.90;;;25.20;99.90;;;;;;6173680;23;20021;-85
2022/08/16 09:13:36;;;;;;;17.77;9.88;;;25.50;99.90;;;;;;6175505;23;20017;-86
2022/08/16 09:16:02;;;;;;;14.20;8.45;;;25.50;99.90;;;;;;6176135;23;20021;-86
2022/08/16 09:18:29;;;;;;;9.68;8.02;;;25.60;99.90;;;;;;6176279;22;20501;-85
2022/08/16 09:20:55;;;;;;;10.38;8.48;;;25.70;99.80;;;;;;6176178;23;20066;-85
2022/08/16 09:23:23;;;;;;;10.05;7.20;;;25.80;99.60;;;;;;6173836;23;20017;-85
2022/08/16 09:25:48;;;;;;;12.45;7.95;;;25.90;99.60;;;;;;6173221;22;20017;-86
2022/08/16 09:28:15;;;;;;;11.25;8.73;;;26.10;99.50;;;;;;6175919;23;20322;-86
2022/08/16 09:30:41;;;;;;;8.77;6.75;;;26.10;99.00;;;;;;6149013;22;20016;-85
2022/08/16 09:33:07;;;;;;;8.65;6.82;;;26.20;98.30;;;;;;6148860;23;20028;-85
2022/08/16 09:35:34;;;;;;;11.40;7.60;;;26.20;96.60;;;;;;6175579;23;20013;-85
2022/08/16 09:38:00;;;;;;;10.00;8.05;;;26.20;97.50;;;;;;6175762;23;20082;-85
2022/08/16 09:40:25;;;;;;;10.38;7.00;;;26.30;97.60;;;;;;6173088;23;20021;-86
2022/08/16 09:42:54;;;;;;;10.65;7.55;;;26.30;97.60;;;;;;6173471;23;20045;-86
2022/08/16 09:45:20;;;;;;;9.05;7.47;;;26.40;97.40;;;;;;6175778;23;20013;-86
2022/08/16 09:47:46;;;;;;;10.70;6.85;;;26.50;96.30;;;;;;6175279;23;20484;-86
2022/08/16 09:50:13;;;;;;;10.82;6.80;;;26.60;96.50;;;;;;6175832;23;20021;-86
2022/08/16 09:52:39;;;;;;;10.75;6.43;;;26.70;96.50;;;;;;6148310;23;20029;-85
2022/08/16 09:55:08;;;;;;;16.27;5.95;;;26.80;96.30;;;;;;6148825;23;20341;-85
2022/08/16 09:57:34;;;;;;;8.25;5.25;;;26.90;95.70;;;;;;6175223;23;20044;-86
2022/08/16 10:00:00;;;;;;;11.50;5.75;;;27.10;95.70;;;;;;6149125;23;20028;-86
2022/08/16 10:02:27;;;;;;;10.60;6.43;;;27.00;95.40;;;;;;6124375;23;20104;-86
2022/08/16 10:04:54;;;;;;;8.13;5.65;;;27.10;95.20;;;;;;6148734;23;20014;-86
2022/08/16 10:07:20;;;;;;;7.80;5.63;;;27.20;95.00;;;;;;6149010;23;20017;-86
2022/08/16 10:09:46;;;;;;;8.75;5.53;;;27.30;95.40;;;;;;6174512;23;20563;-86
2022/08/16 10:14:55;;;;;;;9.30;5.43;;;27.30;94.30;;;;;;6175665;22;20022;-86
2022/08/16 10:17:23;;;;;;;9.35;5.75;;;27.50;94.20;;;;;;6148958;23;20017;-86
2022/08/16 10:19:50;;;;;;;11.10;6.70;;;27.60;94.20;;;;;;6174776;23;20021;-86
2022/08/16 10:22:16;;;;;;;10.35;6.10;;;27.70;94.10;;;;;;6149020;23;20013;-86
2022/08/16 10:24:42;;;;;;;9.75;6.78;;;27.80;93.90;;;;;;6174454;23;20079;-86
2022/08/16 10:27:07;;;;;;;9.85;6.53;;;27.90;93.90;;;;;;6175482;23;20021;-86
2022/08/16 10:29:33;;;;;;;9.10;6.30;;;28.00;93.60;;;;;;6123420;23;20017;-86
2022/08/16 10:31:59;;;;;;;8.55;6.13;;;28.00;93.70;;;;;;6123679;23;20013;-85
2022/08/16 10:34:25;;;;;;;10.90;5.93;;;28.10;93.30;;;;;;6123962;23;20386;-86
2022/08/16 10:36:50;;;;;;;7.30;5.03;;;28.20;93.20;;;;;;6148579;23;20021;-86
2022/08/16 10:39:16;;;;;;;8.30;5.97;;;28.30;93.00;;;;;;6174879;23;20060;-86
2022/08/16 10:41:41;;;;;;;11.20;5.80;;;28.30;91.70;;;;;;6148474;23;20031;-86
2022/08/16 10:44:08;;;;;;;10.32;5.90;;;28.40;92.50;;;;;;6175442;23;20021;-86
2022/08/16 10:46:34;;;;;;;8.65;5.20;;;28.40;92.40;;;;;;6149767;23;20017;-86
2022/08/16 10:49:00;;;;;;;10.95;6.28;;;28.60;92.80;;;;;;6125921;23;20021;-86
2022/08/16 10:51:27;;;;;;;8.80;5.45;;;28.60;92.40;;;;;;6150556;23;20048;-86
2022/08/16 10:53:53;;;;;;;10.35;6.00;;;28.80;92.10;;;;;;6175396;23;20036;-86
2022/08/16 10:56:18;;;;;;;7.85;5.88;;;28.80;91.80;;;;;;6176740;23;20017;-86
2022/08/16 10:58:44;;;;;;;8.27;5.95;;;28.90;92.00;;;;;;6149677;23;20024;-86
2022/08/16 11:01:10;;;;;;;9.85;5.13;;;28.90;91.60;;;;;;6176064;23;20017;-86
2022/08/16 11:03:37;;;;;;;8.65;5.70;;;29.00;91.70;;;;;;6149380;23;20020;-86
2022/08/16 11:06:04;;;;;;;7.78;6.13;;;29.10;91.60;;;;;;6150011;23;20329;-86
2022/08/16 11:08:31;;;;;;;12.63;5.72;;;29.10;91.40;;;;;;6125162;23;20013;-86
2022/08/16 11:10:56;;;;;;;9.20;5.80;;;29.10;91.10;;;;;;6149547;23;20017;-86
2022/08/16 11:13:24;;;;;;;12.13;6.75;;;29.30;91.40;;;;;;6176877;23;20349;-86
2022/08/16 11:15:51;;;;;;;7.95;6.28;;;29.40;91.60;;;;;;6150078;23;20024;-86
2022/08/16 11:18:17;;;;;;;10.77;7.07;;;29.40;91.30;;;;;;6125298;23;20009;-86
2022/08/16 11:20:43;;;;;;;9.02;6.20;;;29.40;90.80;;;;;;6149382;23;20132;-86
2022/08/16 11:23:12;;;;;;;10.98;7.28;;;29.40;90.70;;;;;;6149921;23;20383;-86
2022/08/16 11:25:38;;;;;;;9.10;6.10;;;29.50;90.90;;;;;;6149601;23;20089;-86
2022/08/16 11:28:05;;;;;;;7.95;6.75;;;29.50;90.90;;;;;;6149931;23;20027;-86
2022/08/16 11:30:32;;;;;;;7.85;5.97;;;29.50;90.60;;;;;;6149924;23;20052;-86
2022/08/16 11:33:00;;;;;;;8.95;6.95;;;29.50;90.60;;;;;;6150123;23;20371;-86
2022/08/16 11:35:29;;;;;;;10.85;5.97;;;29.60;90.80;;;;;;6149037;23;20017;-86
2022/08/16 11:37:59;;;;;;;9.15;6.40;;;29.70;90.80;;;;;;6175785;23;20060;-86
2022/08/16 11:40:30;;;;;;;10.20;6.38;;;29.80;90.50;;;;;;6176178;23;20013;-86
2022/08/16 11:42:56;;;;;;;12.52;6.07;;;29.90;90.00;;;;;;6149618;23;20028;-86
2022/08/16 11:45:22;;;;;;;8.70;6.63;;;29.90;90.20;;;;;;6149708;23;20449;-86
2022/08/16 11:47:48;;;;;;;8.48;7.18;;;29.90;90.30;;;;;;6149359;23;20024;-86
2022/08/16 11:50:13;;;;;;;10.85;6.25;;;30.10;90.00;;;;;;6161747;23;20024;-86
2022/08/16 11:52:39;;;;;;;12.70;6.00;;;30.20;90.10;;;;;;6174203;23;20318;-86
2022/08/16 11:55:08;;;;;;;9.85;6.60;;;30.20;89.70;;;;;;6176543;23;20379;-86
2022/08/16 11:57:34;;;;;;;8.20;5.95;;;30.30;90.00;;;;;;6149515;22;20012;-86
2022/08/16 12:00:01;;;;;;;8.23;6.40;;;30.40;88.50;;;;;;6174295;23;20040;-86
2022/08/16 12:02:26;;;;;;;12.85;6.68;;;30.40;88.60;;;;;;6174218;23;20017;-86
2022/08/16 12:04:52;;;;;;;7.65;5.57;;;30.60;89.20;;;;;;6175340;23;20515;-86
2022/08/16 12:07:18;;;;;;;10.32;6.28;;;30.60;90.10;;;;;;6174588;23;20464;-86
2022/08/16 12:09:44;;;;;;;8.00;5.90;;;30.60;89.10;;;;;;6173816;23;20101;-86
2022/08/16 12:12:10;;;;;;;13.38;6.13;;;30.70;87.90;;;;;;6176393;23;20048;-86
2022/08/16 12:14:35;;;;;;;10.48;6.15;;;30.70;87.70;;;;;;6176066;23;20045;-86
2022/08/16 12:17:03;;;;;;;10.32;6.68;;;30.70;88.00;;;;;;6174717;23;20005;-86
2022/08/16 12:19:29;;;;;;;9.88;6.75;;;30.80;89.40;;;;;;6173747;23;20060;-86
2022/08/16 12:21:55;;;;;;;10.25;7.35;;;30.80;88.10;;;;;;6174158;23;20014;-86
2022/08/16 12:24:21;;;;;;;11.40;7.68;;;30.90;88.00;;;;;;6176270;23;20023;-86
2022/08/16 12:26:47;;;;;;;9.85;6.43;;;30.90;88.30;;;;;;6174036;23;20013;-86
2022/08/16 12:29:13;;;;;;;8.73;6.15;;;31.00;89.20;;;;;;6176408;23;20067;-86
2022/08/16 12:31:39;;;;;;;9.90;6.65;;;31.10;89.80;;;;;;6174606;22;20322;-86